sensor_id;sensor_type;location;lat;lon;timestamp;pressure;altitude;pressure_sealevel;temperature;humidity
11605;BME280;5858;43.076;25.626;2023-01-29T00:01:58;99489.09;;;2.13;100.00
11605;BME280;5858;43.076;25.626;2023-01-29T00:04:26;99425.31;;;1.65;100.00
11605;BME280;5858;43.076;25.626;2023-01-29T00:06:55;99495.84;;;2.06;100.00
11605;BME280;5858;43.076;25.626;2023-01-29T00:11:06;99477.66;;;1.92;100.00
11605;BME280;5858;43.076;25.626;2023-01-29T00:12:49;99489.72;;;2.06;100.00
11605;BME280;5858;43.076;25.626;2023-01-29T00:15:17;99458.00;;;1.85;100.00
11605;BME280;5858;43.076;25.626;2023-01-29T00:17:45;99534.97;;;2.33;100.00
11605;BME280;5858;43.076;25.626;2023-01-29T00:20:14;99528.72;;;2.34;100.00
11605;BME280;5858;43.076;25.626;2023-01-29T00:22:41;99477.03;;;2.00;100.00
11605;BME280;5858;43.076;25.626;2023-01-29T00:25:08;99368.13;;;1.22;100.00
11605;BME280;5858;43.076;25.626;2023-01-29T00:27:36;99504.72;;;2.05;100.00
11605;BME280;5858;43.076;25.626;2023-01-29T00:30:03;99533.34;;;2.21;100.00
11605;BME280;5858;43.076;25.626;2023-01-29T00:32:37;99538.56;;;2.32;100.00
11605;BME280;5858;43.076;25.626;2023-01-29T00:35:06;99507.69;;;2.12;100.00
11605;BME280;5858;43.076;25.626;2023-01-29T00:37:35;99563.03;;;2.34;100.00
11605;BME280;5858;43.076;25.626;2023-01-29T00:40:02;99511.75;;;2.16;100.00
11605;BME280;5858;43.076;25.626;2023-01-29T00:42:29;99521.09;;;2.20;100.00
11605;BME280;5858;43.076;25.626;2023-01-29T00:45:14;99380.31;;;1.35;100.00
11605;BME280;5858;43.076;25.626;2023-01-29T00:47:41;99541.94;;;2.34;100.00
11605;BME280;5858;43.076;25.626;2023-01-29T00:50:10;99508.28;;;2.15;100.00
11605;BME280;5858;43.076;25.626;2023-01-29T00:52:40;99499.69;;;2.02;100.00
11605;BME280;5858;43.076;25.626;2023-01-29T00:55:09;99512.25;;;2.10;100.00
11605;BME280;5858;43.076;25.626;2023-01-29T00:57:36;99540.66;;;2.17;100.00
11605;BME280;5858;43.076;25.626;2023-01-29T01:00:06;99504.47;;;2.08;100.00
11605;BME280;5858;43.076;25.626;2023-01-29T01:02:34;99544.22;;;2.28;100.00
11605;BME280;5858;43.076;25.626;2023-01-29T01:05:18;99506.84;;;2.11;100.00
11605;BME280;5858;43.076;25.626;2023-01-29T01:07:48;99537.59;;;2.33;100.00
11605;BME280;5858;43.076;25.626;2023-01-29T01:10:18;99520.25;;;2.19;100.00
11605;BME280;5858;43.076;25.626;2023-01-29T01:12:48;99535.47;;;2.27;100.00
11605;BME280;5858;43.076;25.626;2023-01-29T01:15:17;99532.75;;;2.17;100.00
11605;BME280;5858;43.076;25.626;2023-01-29T01:17:44;99544.63;;;2.23;100.00
11605;BME280;5858;43.076;25.626;2023-01-29T01:20:13;99459.72;;;1.64;100.00
11605;BME280;5858;43.076;25.626;2023-01-29T01:22:40;99541.53;;;2.07;100.00
11605;BME280;5858;43.076;25.626;2023-01-29T01:25:09;99539.97;;;2.15;100.00
11605;BME280;5858;43.076;25.626;2023-01-29T01:27:36;99547.50;;;2.20;100.00
11605;BME280;5858;43.076;25.626;2023-01-29T01:30:08;99513.50;;;1.95;100.00
11605;BME280;5858;43.076;25.626;2023-01-29T01:32:36;99466.72;;;1.53;100.00
11605;BME280;5858;43.076;25.626;2023-01-29T01:35:06;99464.03;;;1.65;100.00
11605;BME280;5858;43.076;25.626;2023-01-29T01:37:33;99549.31;;;2.19;100.00
11605;BME280;5858;43.076;25.626;2023-01-29T01:40:02;99539.19;;;1.93;100.00
11605;BME280;5858;43.076;25.626;2023-01-29T01:42:31;99547.06;;;2.04;100.00
11605;BME280;5858;43.076;25.626;2023-01-29T01:45:00;99546.44;;;2.11;100.00
11605;BME280;5858;43.076;25.626;2023-01-29T01:47:33;99499.47;;;1.83;100.00
11605;BME280;5858;43.076;25.626;2023-01-29T01:50:06;99507.78;;;1.89;100.00
11605;BME280;5858;43.076;25.626;2023-01-29T01:52:37;99499.47;;;1.94;100.00
11605;BME280;5858;43.076;25.626;2023-01-29T01:55:08;99541.38;;;2.19;100.00
11605;BME280;5858;43.076;25.626;2023-01-29T01:57:40;99545.44;;;2.24;100.00
11605;BME280;5858;43.076;25.626;2023-01-29T02:00:11;99541.97;;;2.23;100.00
11605;BME280;5858;43.076;25.626;2023-01-29T02:02:42;99541.50;;;2.18;100.00
11605;BME280;5858;43.076;25.626;2023-01-29T02:05:28;99541.13;;;2.22;100.00
11605;BME280;5858;43.076;25.626;2023-01-29T02:08:14;99546.66;;;2.19;100.00
11605;BME280;5858;43.076;25.626;2023-01-29T02:11:00;99544.03;;;2.19;100.00
11605;BME280;5858;43.076;25.626;2023-01-29T02:13:29;99505.84;;;1.92;100.00
11605;BME280;5858;43.076;25.626;2023-01-29T02:15:56;99522.59;;;2.02;100.00
11605;BME280;5858;43.076;25.626;2023-01-29T02:18:23;99537.69;;;2.11;100.00
11605;BME280;5858;43.076;25.626;2023-01-29T02:21:04;99518.66;;;1.96;100.00
11605;BME280;5858;43.076;25.626;2023-01-29T02:23:53;99496.75;;;1.73;100.00
11605;BME280;5858;43.076;25.626;2023-01-29T02:26:39;99553.91;;;2.06;100.00
11605;BME280;5858;43.076;25.626;2023-01-29T02:29:17;99553.19;;;2.04;100.00
11605;BME280;5858;43.076;25.626;2023-01-29T02:32:07;99557.88;;;2.01;100.00
11605;BME280;5858;43.076;25.626;2023-01-29T02:34:46;99477.50;;;1.50;100.00
11605;BME280;5858;43.076;25.626;2023-01-29T02:37:38;99544.09;;;1.97;100.00
11605;BME280;5858;43.076;25.626;2023-01-29T02:40:12;99523.13;;;1.73;100.00
11605;BME280;5858;43.076;25.626;2023-01-29T02:42:49;99557.13;;;2.10;100.00
11605;BME280;5858;43.076;25.626;2023-01-29T02:45:22;99538.91;;;2.07;100.00
11605;BME280;5858;43.076;25.626;2023-01-29T02:47:56;99560.34;;;2.13;100.00
11605;BME280;5858;43.076;25.626;2023-01-29T02:50:28;99528.63;;;1.93;100.00
11605;BME280;5858;43.076;25.626;2023-01-29T02:53:00;99546.00;;;2.06;100.00
11605;BME280;5858;43.076;25.626;2023-01-29T02:55:35;99549.44;;;2.18;100.00
11605;BME280;5858;43.076;25.626;2023-01-29T02:58:10;99557.09;;;2.21;100.00
11605;BME280;5858;43.076;25.626;2023-01-29T03:00:44;99519.16;;;1.90;100.00
11605;BME280;5858;43.076;25.626;2023-01-29T03:03:16;99563.94;;;2.24;100.00
11605;BME280;5858;43.076;25.626;2023-01-29T03:05:49;99561.53;;;2.20;100.00
11605;BME280;5858;43.076;25.626;2023-01-29T03:08:23;99537.59;;;2.01;100.00
11605;BME280;5858;43.076;25.626;2023-01-29T03:11:03;99559.63;;;2.22;100.00
11605;BME280;5858;43.076;25.626;2023-01-29T03:13:37;99470.16;;;1.65;100.00
11605;BME280;5858;43.076;25.626;2023-01-29T03:16:12;99574.09;;;2.28;100.00
11605;BME280;5858;43.076;25.626;2023-01-29T03:18:42;99527.41;;;1.97;100.00
11605;BME280;5858;43.076;25.626;2023-01-29T03:21:17;99576.75;;;2.28;100.00
11605;BME280;5858;43.076;25.626;2023-01-29T03:24:05;99582.03;;;2.28;100.00
11605;BME280;5858;43.076;25.626;2023-01-29T03:26:50;99478.66;;;1.69;100.00
11605;BME280;5858;43.076;25.626;2023-01-29T03:29:37;99554.25;;;2.13;100.00
11605;BME280;5858;43.076;25.626;2023-01-29T03:32:26;99531.47;;;2.01;100.00
11605;BME280;5858;43.076;25.626;2023-01-29T03:34:57;99549.09;;;2.11;100.00
11605;BME280;5858;43.076;25.626;2023-01-29T03:37:30;99546.94;;;2.05;100.00
11605;BME280;5858;43.076;25.626;2023-01-29T03:39:59;99587.19;;;2.30;100.00
11605;BME280;5858;43.076;25.626;2023-01-29T03:42:31;99581.31;;;2.26;100.00
11605;BME280;5858;43.076;25.626;2023-01-29T03:45:09;99573.91;;;2.20;100.00
11605;BME280;5858;43.076;25.626;2023-01-29T03:47:45;99559.97;;;2.18;100.00
11605;BME280;5858;43.076;25.626;2023-01-29T03:50:25;99576.66;;;2.18;100.00
11605;BME280;5858;43.076;25.626;2023-01-29T03:53:03;99544.44;;;2.04;100.00
11605;BME280;5858;43.076;25.626;2023-01-29T03:55:35;99551.97;;;2.08;100.00
11605;BME280;5858;43.076;25.626;2023-01-29T03:58:11;99573.56;;;2.13;100.00
11605;BME280;5858;43.076;25.626;2023-01-29T04:00:44;99579.06;;;2.21;100.00
11605;BME280;5858;43.076;25.626;2023-01-29T04:03:20;99564.47;;;2.06;100.00
11605;BME280;5858;43.076;25.626;2023-01-29T04:05:51;99544.34;;;1.94;100.00
11605;BME280;5858;43.076;25.626;2023-01-29T04:08:26;99557.00;;;2.11;100.00
11605;BME280;5858;43.076;25.626;2023-01-29T04:10:56;99581.69;;;2.21;100.00
11605;BME280;5858;43.076;25.626;2023-01-29T04:13:26;99552.34;;;2.04;100.00
11605;BME280;5858;43.076;25.626;2023-01-29T04:15:57;99551.38;;;2.05;100.00
11605;BME280;5858;43.076;25.626;2023-01-29T04:18:26;99560.84;;;2.07;100.00
11605;BME280;5858;43.076;25.626;2023-01-29T04:20:53;99508.03;;;1.75;100.00
11605;BME280;5858;43.076;25.626;2023-01-29T04:23:22;99528.50;;;1.83;100.00
11605;BME280;5858;43.076;25.626;2023-01-29T04:25:57;99558.69;;;2.12;100.00
11605;BME280;5858;43.076;25.626;2023-01-29T04:28:44;99589.34;;;2.25;100.00
11605;BME280;5858;43.076;25.626;2023-01-29T04:31:13;99589.25;;;2.26;100.00
11605;BME280;5858;43.076;25.626;2023-01-29T04:33:44;99588.53;;;2.24;100.00
11605;BME280;5858;43.076;25.626;2023-01-29T04:36:24;99592.03;;;2.13;100.00
11605;BME280;5858;43.076;25.626;2023-01-29T04:39:04;99593.94;;;2.22;100.00
11605;BME280;5858;43.076;25.626;2023-01-29T04:41:36;99584.25;;;2.12;100.00
11605;BME280;5858;43.076;25.626;2023-01-29T04:44:11;99575.63;;;1.99;100.00
11605;BME280;5858;43.076;25.626;2023-01-29T04:46:46;99585.44;;;2.08;100.00
11605;BME280;5858;43.076;25.626;2023-01-29T04:49:28;99573.22;;;2.07;100.00
11605;BME280;5858;43.076;25.626;2023-01-29T04:52:03;99522.06;;;1.65;100.00
11605;BME280;5858;43.076;25.626;2023-01-29T04:54:43;99568.44;;;1.78;100.00
11605;BME280;5858;43.076;25.626;2023-01-29T04:57:16;99601.06;;;2.00;100.00
11605;BME280;5858;43.076;25.626;2023-01-29T04:59:51;99572.63;;;1.81;100.00
11605;BME280;5858;43.076;25.626;2023-01-29T05:02:21;99604.38;;;2.13;100.00
11605;BME280;5858;43.076;25.626;2023-01-29T05:04:52;99601.63;;;2.14;100.00
11605;BME280;5858;43.076;25.626;2023-01-29T05:07:21;99601.00;;;2.22;100.00
11605;BME280;5858;43.076;25.626;2023-01-29T05:09:50;99613.63;;;2.18;100.00
11605;BME280;5858;43.076;25.626;2023-01-29T05:12:17;99619.03;;;2.17;100.00
11605;BME280;5858;43.076;25.626;2023-01-29T05:14:45;99616.16;;;2.09;100.00
11605;BME280;5858;43.076;25.626;2023-01-29T05:17:15;99586.78;;;2.02;100.00
11605;BME280;5858;43.076;25.626;2023-01-29T05:19:44;99617.59;;;2.13;100.00
11605;BME280;5858;43.076;25.626;2023-01-29T05:22:15;99602.03;;;1.99;100.00
11605;BME280;5858;43.076;25.626;2023-01-29T05:24:47;99620.81;;;2.16;100.00
11605;BME280;5858;43.076;25.626;2023-01-29T05:27:16;99614.69;;;2.16;100.00
11605;BME280;5858;43.076;25.626;2023-01-29T05:30:02;99606.69;;;2.06;100.00
11605;BME280;5858;43.076;25.626;2023-01-29T05:32:29;99625.84;;;2.19;100.00
11605;BME280;5858;43.076;25.626;2023-01-29T05:34:56;99578.88;;;1.91;100.00
11605;BME280;5858;43.076;25.626;2023-01-29T05:37:25;99601.41;;;2.06;100.00
11605;BME280;5858;43.076;25.626;2023-01-29T05:39:52;99635.78;;;2.27;100.00
11605;BME280;5858;43.076;25.626;2023-01-29T05:42:19;99631.47;;;2.26;100.00
11605;BME280;5858;43.076;25.626;2023-01-29T05:44:46;99638.56;;;2.26;100.00
11605;BME280;5858;43.076;25.626;2023-01-29T05:47:13;99628.75;;;2.16;100.00
11605;BME280;5858;43.076;25.626;2023-01-29T05:49:40;99649.84;;;2.28;100.00
11605;BME280;5858;43.076;25.626;2023-01-29T05:52:07;99648.31;;;2.14;100.00
11605;BME280;5858;43.076;25.626;2023-01-29T05:54:36;99659.44;;;2.29;100.00
11605;BME280;5858;43.076;25.626;2023-01-29T05:57:03;99656.44;;;2.22;100.00
11605;BME280;5858;43.076;25.626;2023-01-29T05:59:30;99638.22;;;2.19;100.00
11605;BME280;5858;43.076;25.626;2023-01-29T06:01:57;99672.63;;;2.29;100.00
11605;BME280;5858;43.076;25.626;2023-01-29T06:04:24;99637.03;;;1.78;100.00
11605;BME280;5858;43.076;25.626;2023-01-29T06:06:51;99687.19;;;2.01;100.00
11605;BME280;5858;43.076;25.626;2023-01-29T06:09:18;99636.56;;;1.73;100.00
11605;BME280;5858;43.076;25.626;2023-01-29T06:11:46;99666.78;;;1.92;100.00
11605;BME280;5858;43.076;25.626;2023-01-29T06:14:13;99635.47;;;1.76;100.00
11605;BME280;5858;43.076;25.626;2023-01-29T06:16:40;99521.94;;;0.99;100.00
11605;BME280;5858;43.076;25.626;2023-01-29T06:19:07;99624.91;;;1.76;100.00
11605;BME280;5858;43.076;25.626;2023-01-29T06:21:35;99649.03;;;1.71;100.00
11605;BME280;5858;43.076;25.626;2023-01-29T06:24:02;99691.97;;;1.96;100.00
11605;BME280;5858;43.076;25.626;2023-01-29T06:26:29;99651.28;;;1.76;100.00
11605;BME280;5858;43.076;25.626;2023-01-29T06:28:57;99667.84;;;1.67;100.00
11605;BME280;5858;43.076;25.626;2023-01-29T06:31:24;99664.47;;;1.65;100.00
11605;BME280;5858;43.076;25.626;2023-01-29T06:33:51;99705.75;;;1.88;100.00
11605;BME280;5858;43.076;25.626;2023-01-29T06:36:18;99683.44;;;1.70;100.00
11605;BME280;5858;43.076;25.626;2023-01-29T06:38:45;99622.34;;;1.41;100.00
11605;BME280;5858;43.076;25.626;2023-01-29T06:41:15;99676.09;;;1.62;100.00
11605;BME280;5858;43.076;25.626;2023-01-29T06:43:43;99669.75;;;1.65;100.00
11605;BME280;5858;43.076;25.626;2023-01-29T06:46:12;99697.59;;;1.80;100.00
11605;BME280;5858;43.076;25.626;2023-01-29T06:48:39;99690.13;;;1.63;100.00
11605;BME280;5858;43.076;25.626;2023-01-29T06:51:08;99676.56;;;1.56;100.00
11605;BME280;5858;43.076;25.626;2023-01-29T06:53:36;99651.00;;;1.34;100.00
11605;BME280;5858;43.076;25.626;2023-01-29T06:56:05;99712.94;;;1.86;100.00
11605;BME280;5858;43.076;25.626;2023-01-29T06:58:35;99716.53;;;1.85;100.00
11605;BME280;5858;43.076;25.626;2023-01-29T07:01:03;99659.00;;;1.33;100.00
11605;BME280;5858;43.076;25.626;2023-01-29T07:03:32;99685.34;;;1.68;100.00
11605;BME280;5858;43.076;25.626;2023-01-29T07:05:59;99719.69;;;1.90;100.00
11605;BME280;5858;43.076;25.626;2023-01-29T07:08:26;99731.88;;;1.80;100.00
11605;BME280;5858;43.076;25.626;2023-01-29T07:10:59;99729.59;;;1.75;100.00
11605;BME280;5858;43.076;25.626;2023-01-29T07:13:27;99733.31;;;1.73;100.00
11605;BME280;5858;43.076;25.626;2023-01-29T07:15:57;99715.06;;;1.70;100.00
11605;BME280;5858;43.076;25.626;2023-01-29T07:18:25;99662.38;;;1.35;100.00
11605;BME280;5858;43.076;25.626;2023-01-29T07:20:54;99713.75;;;1.64;100.00
11605;BME280;5858;43.076;25.626;2023-01-29T07:23:21;99743.03;;;1.83;100.00
11605;BME280;5858;43.076;25.626;2023-01-29T07:25:49;99690.34;;;1.48;100.00
11605;BME280;5858;43.076;25.626;2023-01-29T07:28:16;99636.22;;;1.20;100.00
11605;BME280;5858;43.076;25.626;2023-01-29T07:30:43;99683.94;;;1.40;100.00
11605;BME280;5858;43.076;25.626;2023-01-29T07:33:11;99714.59;;;1.65;100.00
11605;BME280;5858;43.076;25.626;2023-01-29T07:35:40;99700.09;;;1.70;100.00
11605;BME280;5858;43.076;25.626;2023-01-29T07:38:09;99739.84;;;2.02;100.00
11605;BME280;5858;43.076;25.626;2023-01-29T07:40:38;99705.50;;;1.80;100.00
11605;BME280;5858;43.076;25.626;2023-01-29T07:43:06;99699.97;;;1.61;100.00
11605;BME280;5858;43.076;25.626;2023-01-29T07:45:34;99746.56;;;1.95;100.00
11605;BME280;5858;43.076;25.626;2023-01-29T07:48:03;99744.09;;;1.81;100.00
11605;BME280;5858;43.076;25.626;2023-01-29T07:50:31;99725.63;;;1.81;100.00
11605;BME280;5858;43.076;25.626;2023-01-29T07:52:59;99758.91;;;2.06;100.00
11605;BME280;5858;43.076;25.626;2023-01-29T07:55:29;99717.66;;;1.94;100.00
11605;BME280;5858;43.076;25.626;2023-01-29T07:57:57;99749.56;;;2.13;100.00
11605;BME280;5858;43.076;25.626;2023-01-29T08:00:26;99766.13;;;2.26;100.00
11605;BME280;5858;43.076;25.626;2023-01-29T08:03:00;99652.94;;;1.43;100.00
11605;BME280;5858;43.076;25.626;2023-01-29T08:05:28;99774.16;;;2.25;100.00
11605;BME280;5858;43.076;25.626;2023-01-29T08:07:55;99714.84;;;1.73;100.00
11605;BME280;5858;43.076;25.626;2023-01-29T08:10:25;99770.56;;;2.14;100.00
11605;BME280;5858;43.076;25.626;2023-01-29T08:12:55;99771.88;;;2.09;100.00
11605;BME280;5858;43.076;25.626;2023-01-29T08:15:23;99804.75;;;2.16;100.00
11605;BME280;5858;43.076;25.626;2023-01-29T08:17:51;99668.56;;;1.57;100.00
11605;BME280;5858;43.076;25.626;2023-01-29T08:20:18;99714.16;;;1.93;100.00
11605;BME280;5858;43.076;25.626;2023-01-29T08:22:46;99776.34;;;2.42;100.00
11605;BME280;5858;43.076;25.626;2023-01-29T08:25:14;99784.97;;;2.33;100.00
11605;BME280;5858;43.076;25.626;2023-01-29T08:27:41;99780.19;;;2.49;100.00
11605;BME280;5858;43.076;25.626;2023-01-29T08:30:11;99699.28;;;1.92;100.00
11605;BME280;5858;43.076;25.626;2023-01-29T08:32:39;99694.25;;;2.00;100.00
11605;BME280;5858;43.076;25.626;2023-01-29T08:35:07;99786.88;;;2.75;100.00
11605;BME280;5858;43.076;25.626;2023-01-29T08:37:35;99748.50;;;2.38;100.00
11605;BME280;5858;43.076;25.626;2023-01-29T08:40:07;99745.00;;;2.48;100.00
11605;BME280;5858;43.076;25.626;2023-01-29T08:42:38;99715.13;;;2.14;100.00
11605;BME280;5858;43.076;25.626;2023-01-29T08:45:07;99749.81;;;2.43;100.00
11605;BME280;5858;43.076;25.626;2023-01-29T08:47:36;99814.47;;;2.82;100.00
11605;BME280;5858;43.076;25.626;2023-01-29T08:50:04;99704.19;;;2.30;100.00
11605;BME280;5858;43.076;25.626;2023-01-29T08:52:32;99726.63;;;2.58;100.00
11605;BME280;5858;43.076;25.626;2023-01-29T08:54:59;99812.00;;;3.24;100.00
11605;BME280;5858;43.076;25.626;2023-01-29T08:57:27;99775.28;;;3.10;100.00
11605;BME280;5858;43.076;25.626;2023-01-29T08:59:54;99790.28;;;3.53;100.00
11605;BME280;5858;43.076;25.626;2023-01-29T09:02:24;99707.06;;;3.04;100.00
11605;BME280;5858;43.076;25.626;2023-01-29T09:04:53;99681.38;;;2.95;100.00
11605;BME280;5858;43.076;25.626;2023-01-29T09:07:20;99713.97;;;3.16;100.00
11605;BME280;5858;43.076;25.626;2023-01-29T09:09:47;99747.31;;;3.60;100.00
11605;BME280;5858;43.076;25.626;2023-01-29T09:12:14;99754.47;;;3.69;99.34
11605;BME280;5858;43.076;25.626;2023-01-29T09:14:42;99755.63;;;3.76;98.49
11605;BME280;5858;43.076;25.626;2023-01-29T09:17:09;99752.25;;;3.86;98.43
11605;BME280;5858;43.076;25.626;2023-01-29T09:19:36;99781.47;;;3.63;97.50
11605;BME280;5858;43.076;25.626;2023-01-29T09:22:05;99637.56;;;2.81;98.76
11605;BME280;5858;43.076;25.626;2023-01-29T09:24:32;99788.75;;;3.50;99.77
11605;BME280;5858;43.076;25.626;2023-01-29T09:27:00;99785.91;;;3.63;99.45
11605;BME280;5858;43.076;25.626;2023-01-29T09:29:27;99774.22;;;3.44;99.95
11605;BME280;5858;43.076;25.626;2023-01-29T09:31:54;99800.75;;;3.54;98.81
11605;BME280;5858;43.076;25.626;2023-01-29T09:34:21;99771.88;;;3.19;99.27
11605;BME280;5858;43.076;25.626;2023-01-29T09:36:48;99802.72;;;3.41;99.56
11605;BME280;5858;43.076;25.626;2023-01-29T09:39:17;99802.13;;;3.37;99.92
11605;BME280;5858;43.076;25.626;2023-01-29T09:41:53;99765.41;;;3.12;100.00
11605;BME280;5858;43.076;25.626;2023-01-29T09:44:32;99731.00;;;2.91;100.00
11605;BME280;5858;43.076;25.626;2023-01-29T09:47:10;99764.88;;;2.97;100.00
11605;BME280;5858;43.076;25.626;2023-01-29T09:49:40;99797.03;;;3.13;100.00
11605;BME280;5858;43.076;25.626;2023-01-29T09:52:13;99675.63;;;2.35;100.00
11605;BME280;5858;43.076;25.626;2023-01-29T09:54:50;99811.81;;;3.05;100.00
11605;BME280;5858;43.076;25.626;2023-01-29T09:57:24;99782.00;;;3.14;100.00
11605;BME280;5858;43.076;25.626;2023-01-29T09:59:53;99711.63;;;2.47;100.00
11605;BME280;5858;43.076;25.626;2023-01-29T10:02:40;99728.44;;;2.58;100.00
11605;BME280;5858;43.076;25.626;2023-01-29T10:05:29;99716.69;;;2.50;100.00
11605;BME280;5858;43.076;25.626;2023-01-29T10:08:13;99739.22;;;2.66;100.00
11605;BME280;5858;43.076;25.626;2023-01-29T10:10:51;99776.16;;;2.99;100.00
11605;BME280;5858;43.076;25.626;2023-01-29T10:13:30;99682.38;;;2.39;100.00
11605;BME280;5858;43.076;25.626;2023-01-29T10:16:21;99769.44;;;2.95;100.00
11605;BME280;5858;43.076;25.626;2023-01-29T10:19:01;99758.16;;;2.93;100.00
11605;BME280;5858;43.076;25.626;2023-01-29T10:24:36;99695.19;;;2.44;100.00
11605;BME280;5858;43.076;25.626;2023-01-29T10:27:12;99767.63;;;2.96;100.00
11605;BME280;5858;43.076;25.626;2023-01-29T10:29:41;99766.19;;;3.03;100.00
11605;BME280;5858;43.076;25.626;2023-01-29T10:32:14;99679.41;;;2.65;100.00
11605;BME280;5858;43.076;25.626;2023-01-29T10:34:45;99760.25;;;3.10;100.00
11605;BME280;5858;43.076;25.626;2023-01-29T10:37:17;99608.31;;;2.30;100.00
11605;BME280;5858;43.076;25.626;2023-01-29T10:39:44;99732.81;;;3.23;100.00
11605;BME280;5858;43.076;25.626;2023-01-29T10:42:23;99679.38;;;2.76;100.00
11605;BME280;5858;43.076;25.626;2023-01-29T10:45:01;99748.16;;;3.29;100.00
11605;BME280;5858;43.076;25.626;2023-01-29T10:48:07;99718.81;;;3.11;100.00
11605;BME280;5858;43.076;25.626;2023-01-29T10:50:47;99656.88;;;2.93;100.00
11605;BME280;5858;43.076;25.626;2023-01-29T10:53:31;99743.44;;;3.43;100.00
11605;BME280;5858;43.076;25.626;2023-01-29T10:56:11;99692.38;;;3.11;100.00
11605;BME280;5858;43.076;25.626;2023-01-29T10:58:48;99681.13;;;2.98;100.00
11605;BME280;5858;43.076;25.626;2023-01-29T11:01:16;99602.16;;;2.51;100.00
11605;BME280;5858;43.076;25.626;2023-01-29T11:03:44;99731.00;;;3.23;100.00
11605;BME280;5858;43.076;25.626;2023-01-29T11:06:15;99544.41;;;2.15;100.00
11605;BME280;5858;43.076;25.626;2023-01-29T11:08:50;99741.56;;;3.34;100.00
11605;BME280;5858;43.076;25.626;2023-01-29T11:11:19;99632.91;;;2.73;100.00
11605;BME280;5858;43.076;25.626;2023-01-29T11:13:53;99667.41;;;3.04;100.00
11605;BME280;5858;43.076;25.626;2023-01-29T11:16:21;99682.44;;;3.03;100.00
11605;BME280;5858;43.076;25.626;2023-01-29T11:18:55;99710.31;;;3.28;100.00
11605;BME280;5858;43.076;25.626;2023-01-29T11:21:23;99685.31;;;3.00;100.00
11605;BME280;5858;43.076;25.626;2023-01-29T11:24:04;99702.63;;;3.25;100.00
11605;BME280;5858;43.076;25.626;2023-01-29T11:26:35;99705.72;;;3.30;100.00
11605;BME280;5858;43.076;25.626;2023-01-29T11:29:36;99637.69;;;2.91;100.00
11605;BME280;5858;43.076;25.626;2023-01-29T11:32:06;99587.81;;;2.65;100.00
11605;BME280;5858;43.076;25.626;2023-01-29T11:34:34;99539.91;;;2.27;100.00
11605;BME280;5858;43.076;25.626;2023-01-29T11:37:21;99606.66;;;2.61;100.00
11605;BME280;5858;43.076;25.626;2023-01-29T11:39:49;99703.41;;;3.16;100.00
11605;BME280;5858;43.076;25.626;2023-01-29T11:42:19;99700.88;;;3.14;100.00
11605;BME280;5858;43.076;25.626;2023-01-29T11:44:48;99656.91;;;2.81;100.00
11605;BME280;5858;43.076;25.626;2023-01-29T11:47:18;99695.78;;;3.02;100.00
11605;BME280;5858;43.076;25.626;2023-01-29T11:49:49;99687.84;;;3.02;100.00
11605;BME280;5858;43.076;25.626;2023-01-29T11:52:18;99574.94;;;2.40;100.00
11605;BME280;5858;43.076;25.626;2023-01-29T11:54:50;99659.91;;;2.88;100.00
11605;BME280;5858;43.076;25.626;2023-01-29T11:57:26;99692.88;;;3.05;100.00
11605;BME280;5858;43.076;25.626;2023-01-29T11:59:59;99633.28;;;2.69;100.00
11605;BME280;5858;43.076;25.626;2023-01-29T12:02:35;99702.22;;;3.09;100.00
11605;BME280;5858;43.076;25.626;2023-01-29T12:05:12;99641.72;;;2.63;100.00
11605;BME280;5858;43.076;25.626;2023-01-29T12:07:42;99575.03;;;2.49;100.00
11605;BME280;5858;43.076;25.626;2023-01-29T12:10:28;99606.50;;;2.73;100.00
11605;BME280;5858;43.076;25.626;2023-01-29T12:13:03;99683.84;;;3.07;100.00
11605;BME280;5858;43.076;25.626;2023-01-29T12:15:32;99637.03;;;2.66;100.00
11605;BME280;5858;43.076;25.626;2023-01-29T12:18:11;99638.06;;;2.75;100.00
11605;BME280;5858;43.076;25.626;2023-01-29T12:20:43;99565.09;;;2.31;100.00
11605;BME280;5858;43.076;25.626;2023-01-29T12:23:22;99591.03;;;2.37;100.00
11605;BME280;5858;43.076;25.626;2023-01-29T12:25:58;99682.94;;;2.97;100.00
11605;BME280;5858;43.076;25.626;2023-01-29T12:28:50;99630.09;;;2.54;100.00
11605;BME280;5858;43.076;25.626;2023-01-29T12:31:35;99629.16;;;2.55;100.00
11605;BME280;5858;43.076;25.626;2023-01-29T12:34:11;99693.97;;;3.02;100.00
11605;BME280;5858;43.076;25.626;2023-01-29T12:36:45;99663.31;;;2.68;100.00
11605;BME280;5858;43.076;25.626;2023-01-29T12:39:18;99653.00;;;2.65;100.00
11605;BME280;5858;43.076;25.626;2023-01-29T12:41:52;99675.94;;;2.64;100.00
11605;BME280;5858;43.076;25.626;2023-01-29T12:44:28;99671.91;;;2.81;100.00
11605;BME280;5858;43.076;25.626;2023-01-29T12:47:01;99562.97;;;2.25;100.00
11605;BME280;5858;43.076;25.626;2023-01-29T12:49:32;99694.03;;;3.12;100.00
11605;BME280;5858;43.076;25.626;2023-01-29T12:52:08;99699.59;;;3.09;100.00
11605;BME280;5858;43.076;25.626;2023-01-29T12:54:42;99621.19;;;2.66;100.00
11605;BME280;5858;43.076;25.626;2023-01-29T12:57:20;99635.56;;;2.73;100.00
11605;BME280;5858;43.076;25.626;2023-01-29T12:59:54;99687.06;;;2.90;100.00
11605;BME280;5858;43.076;25.626;2023-01-29T13:02:32;99703.00;;;3.00;100.00
11605;BME280;5858;43.076;25.626;2023-01-29T13:05:05;99660.63;;;2.79;100.00
11605;BME280;5858;43.076;25.626;2023-01-29T13:07:40;99665.13;;;2.67;100.00
11605;BME280;5858;43.076;25.626;2023-01-29T13:10:13;99710.84;;;2.90;100.00
11605;BME280;5858;43.076;25.626;2023-01-29T13:12:48;99674.00;;;2.66;100.00
11605;BME280;5858;43.076;25.626;2023-01-29T13:15:22;99607.59;;;2.28;100.00
11605;BME280;5858;43.076;25.626;2023-01-29T13:17:55;99680.50;;;2.62;100.00
11605;BME280;5858;43.076;25.626;2023-01-29T13:20:25;99624.50;;;2.36;100.00
11605;BME280;5858;43.076;25.626;2023-01-29T13:22:59;99682.16;;;2.74;100.00
11605;BME280;5858;43.076;25.626;2023-01-29T13:25:30;99619.97;;;2.38;100.00
11605;BME280;5858;43.076;25.626;2023-01-29T13:27:57;99655.66;;;2.65;100.00
11605;BME280;5858;43.076;25.626;2023-01-29T13:30:29;99624.38;;;2.49;100.00